sensor_id;sensor_type;location;lat;lon;timestamp;temperature;humidity
48212;DHT22;34000;48.772;9.162;2024-01-07T00:01:59;11.50;59.50
48212;DHT22;34000;48.772;9.162;2024-01-07T00:04:24;11.50;59.50
48212;DHT22;34000;48.772;9.162;2024-01-07T00:06:50;11.50;59.60
48212;DHT22;34000;48.772;9.162;2024-01-07T00:09:16;11.50;59.60
48212;DHT22;34000;48.772;9.162;2024-01-07T00:11:42;11.50;59.60
48212;DHT22;34000;48.772;9.162;2024-01-07T00:14:07;11.50;59.60
48212;DHT22;34000;48.772;9.162;2024-01-07T00:16:33;11.50;59.60
48212;DHT22;34000;48.772;9.162;2024-01-07T00:18:59;11.50;59.60
48212;DHT22;34000;48.772;9.162;2024-01-07T00:21:25;11.50;59.50
48212;DHT22;34000;48.772;9.162;2024-01-07T00:23:51;11.60;59.60
48212;DHT22;34000;48.772;9.162;2024-01-07T00:26:16;11.50;59.60
48212;DHT22;34000;48.772;9.162;2024-01-07T00:28:42;11.50;60.20
48212;DHT22;34000;48.772;9.162;2024-01-07T00:31:07;11.60;59.60
48212;DHT22;34000;48.772;9.162;2024-01-07T00:33:35;11.50;59.60
48212;DHT22;34000;48.772;9.162;2024-01-07T00:36:01;11.50;59.60
48212;DHT22;34000;48.772;9.162;2024-01-07T00:38:27;11.50;59.60
48212;DHT22;34000;48.772;9.162;2024-01-07T00:40:53;11.50;59.60
48212;DHT22;34000;48.772;9.162;2024-01-07T00:43:18;11.50;59.60
48212;DHT22;34000;48.772;9.162;2024-01-07T00:45:44;11.40;59.60
48212;DHT22;34000;48.772;9.162;2024-01-07T00:48:10;11.50;59.60
48212;DHT22;34000;48.772;9.162;2024-01-07T00:50:35;11.60;59.60
48212;DHT22;34000;48.772;9.162;2024-01-07T00:53:01;11.50;59.60
48212;DHT22;34000;48.772;9.162;2024-01-07T00:55:27;11.50;59.60
48212;DHT22;34000;48.772;9.162;2024-01-07T00:57:52;11.50;59.60
48212;DHT22;34000;48.772;9.162;2024-01-07T01:00:18;11.50;59.70
48212;DHT22;34000;48.772;9.162;2024-01-07T01:02:45;11.50;59.70
48212;DHT22;34000;48.772;9.162;2024-01-07T01:05:10;11.50;59.70
48212;DHT22;34000;48.772;9.162;2024-01-07T01:07:36;11.40;59.60
48212;DHT22;34000;48.772;9.162;2024-01-07T01:10:01;11.50;59.70
48212;DHT22;34000;48.772;9.162;2024-01-07T01:12:27;11.50;59.70
48212;DHT22;34000;48.772;9.162;2024-01-07T01:14:53;11.50;59.70
48212;DHT22;34000;48.772;9.162;2024-01-07T01:17:18;11.50;59.70
48212;DHT22;34000;48.772;9.162;2024-01-07T01:19:44;11.50;59.70
48212;DHT22;34000;48.772;9.162;2024-01-07T01:22:10;11.40;59.70
48212;DHT22;34000;48.772;9.162;2024-01-07T01:24:35;11.40;59.70
48212;DHT22;34000;48.772;9.162;2024-01-07T01:27:01;11.40;59.70
48212;DHT22;34000;48.772;9.162;2024-01-07T01:29:26;11.40;59.70
48212;DHT22;34000;48.772;9.162;2024-01-07T01:31:52;11.40;59.70
48212;DHT22;34000;48.772;9.162;2024-01-07T01:34:17;11.40;59.80
48212;DHT22;34000;48.772;9.162;2024-01-07T01:36:43;11.40;59.80
48212;DHT22;34000;48.772;9.162;2024-01-07T01:39:09;11.40;59.90
48212;DHT22;34000;48.772;9.162;2024-01-07T01:41:34;11.40;59.90
48212;DHT22;34000;48.772;9.162;2024-01-07T01:44:00;11.40;59.80
48212;DHT22;34000;48.772;9.162;2024-01-07T01:46:28;11.40;59.80
48212;DHT22;34000;48.772;9.162;2024-01-07T01:48:54;11.40;59.90
48212;DHT22;34000;48.772;9.162;2024-01-07T01:51:20;11.40;59.80
48212;DHT22;34000;48.772;9.162;2024-01-07T01:53:47;11.40;59.90
48212;DHT22;34000;48.772;9.162;2024-01-07T01:56:13;11.40;59.90
48212;DHT22;34000;48.772;9.162;2024-01-07T01:58:39;11.30;59.90
48212;DHT22;34000;48.772;9.162;2024-01-07T02:01:05;11.40;60.00
48212;DHT22;34000;48.772;9.162;2024-01-07T02:03:31;11.30;60.00
48212;DHT22;34000;48.772;9.162;2024-01-07T02:05:57;11.30;60.00
48212;DHT22;34000;48.772;9.162;2024-01-07T02:08:23;11.30;60.00
48212;DHT22;34000;48.772;9.162;2024-01-07T02:10:50;11.30;60.00
48212;DHT22;34000;48.772;9.162;2024-01-07T02:13:15;11.40;60.10
48212;DHT22;34000;48.772;9.162;2024-01-07T02:15:41;11.30;60.00
48212;DHT22;34000;48.772;9.162;2024-01-07T02:18:07;11.30;60.10
48212;DHT22;34000;48.772;9.162;2024-01-07T02:20:32;11.30;60.10
48212;DHT22;34000;48.772;9.162;2024-01-07T02:22:58;11.30;60.10
48212;DHT22;34000;48.772;9.162;2024-01-07T02:25:24;11.30;60.10
48212;DHT22;34000;48.772;9.162;2024-01-07T02:27:50;11.30;60.20
48212;DHT22;34000;48.772;9.162;2024-01-07T02:30:16;11.30;60.20
48212;DHT22;34000;48.772;9.162;2024-01-07T02:32:42;11.30;60.20
48212;DHT22;34000;48.772;9.162;2024-01-07T02:35:08;11.30;60.30
48212;DHT22;34000;48.772;9.162;2024-01-07T02:37:34;11.30;60.30
48212;DHT22;34000;48.772;9.162;2024-01-07T02:40:00;11.30;60.30
48212;DHT22;34000;48.772;9.162;2024-01-07T02:42:25;11.30;60.60
48212;DHT22;34000;48.772;9.162;2024-01-07T02:44:51;11.30;60.40
48212;DHT22;34000;48.772;9.162;2024-01-07T02:47:16;11.30;61.00
48212;DHT22;34000;48.772;9.162;2024-01-07T02:49:42;11.30;60.40
48212;DHT22;34000;48.772;9.162;2024-01-07T02:52:08;11.30;60.40
48212;DHT22;34000;48.772;9.162;2024-01-07T02:54:33;11.20;60.40
48212;DHT22;34000;48.772;9.162;2024-01-07T02:56:59;11.20;60.40
48212;DHT22;34000;48.772;9.162;2024-01-07T02:59:24;11.20;60.40
48212;DHT22;34000;48.772;9.162;2024-01-07T03:01:50;11.20;60.50
48212;DHT22;34000;48.772;9.162;2024-01-07T03:04:16;11.20;60.50
48212;DHT22;34000;48.772;9.162;2024-01-07T03:06:41;11.20;60.50
48212;DHT22;34000;48.772;9.162;2024-01-07T03:09:07;11.20;60.50
48212;DHT22;34000;48.772;9.162;2024-01-07T03:11:33;11.20;61.20
48212;DHT22;34000;48.772;9.162;2024-01-07T03:13:59;11.20;60.50
48212;DHT22;34000;48.772;9.162;2024-01-07T03:16:25;11.20;60.60
48212;DHT22;34000;48.772;9.162;2024-01-07T03:18:52;11.20;60.60
48212;DHT22;34000;48.772;9.162;2024-01-07T03:23:44;11.10;60.60
48212;DHT22;34000;48.772;9.162;2024-01-07T03:26:09;11.20;60.70
48212;DHT22;34000;48.772;9.162;2024-01-07T03:28:35;11.20;60.70
48212;DHT22;34000;48.772;9.162;2024-01-07T03:31:08;11.20;60.70
48212;DHT22;34000;48.772;9.162;2024-01-07T03:33:34;11.20;60.70
48212;DHT22;34000;48.772;9.162;2024-01-07T03:35:59;11.20;60.70
48212;DHT22;34000;48.772;9.162;2024-01-07T03:38:25;11.20;60.70
48212;DHT22;34000;48.772;9.162;2024-01-07T03:40:50;11.20;60.60
48212;DHT22;34000;48.772;9.162;2024-01-07T03:43:16;11.20;60.70
48212;DHT22;34000;48.772;9.162;2024-01-07T03:45:42;11.20;60.70
48212;DHT22;34000;48.772;9.162;2024-01-07T03:48:08;11.20;60.70
48212;DHT22;34000;48.772;9.162;2024-01-07T03:50:34;11.10;60.60
48212;DHT22;34000;48.772;9.162;2024-01-07T03:53:00;11.10;60.70
48212;DHT22;34000;48.772;9.162;2024-01-07T03:55:25;11.10;60.70
48212;DHT22;34000;48.772;9.162;2024-01-07T03:57:51;11.10;60.70
48212;DHT22;34000;48.772;9.162;2024-01-07T04:00:17;11.10;60.70
48212;DHT22;34000;48.772;9.162;2024-01-07T04:02:42;11.10;60.70
48212;DHT22;34000;48.772;9.162;2024-01-07T04:05:09;11.10;60.80
48212;DHT22;34000;48.772;9.162;2024-01-07T04:07:35;11.10;60.70
48212;DHT22;34000;48.772;9.162;2024-01-07T04:10:00;11.10;60.80
48212;DHT22;34000;48.772;9.162;2024-01-07T04:12:26;11.00;60.80
48212;DHT22;34000;48.772;9.162;2024-01-07T04:14:52;11.00;60.80
48212;DHT22;34000;48.772;9.162;2024-01-07T04:17:17;11.00;60.80
48212;DHT22;34000;48.772;9.162;2024-01-07T04:19:43;11.00;60.80
48212;DHT22;34000;48.772;9.162;2024-01-07T04:22:08;11.00;60.90
48212;DHT22;34000;48.772;9.162;2024-01-07T04:24:34;11.00;60.80
48212;DHT22;34000;48.772;9.162;2024-01-07T04:27:00;10.90;60.80
48212;DHT22;34000;48.772;9.162;2024-01-07T04:29:25;10.90;60.80
48212;DHT22;34000;48.772;9.162;2024-01-07T04:31:51;10.90;60.80
48212;DHT22;34000;48.772;9.162;2024-01-07T04:34:16;10.90;60.90
48212;DHT22;34000;48.772;9.162;2024-01-07T04:36:42;10.80;60.90
48212;DHT22;34000;48.772;9.162;2024-01-07T04:39:07;10.90;61.00
48212;DHT22;34000;48.772;9.162;2024-01-07T04:41:35;10.90;60.90
48212;DHT22;34000;48.772;9.162;2024-01-07T04:44:00;10.90;61.00
48212;DHT22;34000;48.772;9.162;2024-01-07T04:46:26;10.80;60.90
48212;DHT22;34000;48.772;9.162;2024-01-07T04:48:51;10.90;60.90
48212;DHT22;34000;48.772;9.162;2024-01-07T04:51:17;10.90;60.90
48212;DHT22;34000;48.772;9.162;2024-01-07T04:53:43;10.90;60.90
48212;DHT22;34000;48.772;9.162;2024-01-07T04:56:08;10.90;61.00
48212;DHT22;34000;48.772;9.162;2024-01-07T04:58:34;10.90;60.90
48212;DHT22;34000;48.772;9.162;2024-01-07T05:00:59;10.90;60.90
48212;DHT22;34000;48.772;9.162;2024-01-07T05:03:25;10.80;60.90
48212;DHT22;34000;48.772;9.162;2024-01-07T05:05:51;10.90;61.00
48212;DHT22;34000;48.772;9.162;2024-01-07T05:08:16;10.90;60.90
48212;DHT22;34000;48.772;9.162;2024-01-07T05:10:42;10.90;60.90
48212;DHT22;34000;48.772;9.162;2024-01-07T05:13:07;10.90;60.90
48212;DHT22;34000;48.772;9.162;2024-01-07T05:15:33;10.90;60.90
48212;DHT22;34000;48.772;9.162;2024-01-07T05:17:59;10.90;60.90
48212;DHT22;34000;48.772;9.162;2024-01-07T05:20:24;10.90;60.90
48212;DHT22;34000;48.772;9.162;2024-01-07T05:22:50;10.90;60.90
48212;DHT22;34000;48.772;9.162;2024-01-07T05:25:15;10.90;60.90
48212;DHT22;34000;48.772;9.162;2024-01-07T05:27:41;10.90;60.90
48212;DHT22;34000;48.772;9.162;2024-01-07T05:30:07;10.90;60.90
48212;DHT22;34000;48.772;9.162;2024-01-07T05:32:34;10.90;60.90
48212;DHT22;34000;48.772;9.162;2024-01-07T05:35:00;10.90;60.90
48212;DHT22;34000;48.772;9.162;2024-01-07T05:37:26;10.80;60.80
48212;DHT22;34000;48.772;9.162;2024-01-07T05:39:51;10.90;60.80
48212;DHT22;34000;48.772;9.162;2024-01-07T05:42:17;10.90;60.90
48212;DHT22;34000;48.772;9.162;2024-01-07T05:44:43;10.80;60.80
48212;DHT22;34000;48.772;9.162;2024-01-07T05:47:08;10.90;60.90
48212;DHT22;34000;48.772;9.162;2024-01-07T05:49:34;10.80;60.80
48212;DHT22;34000;48.772;9.162;2024-01-07T05:51:59;10.90;60.90
48212;DHT22;34000;48.772;9.162;2024-01-07T05:54:25;10.80;60.90
48212;DHT22;34000;48.772;9.162;2024-01-07T05:56:51;10.80;60.90
48212;DHT22;34000;48.772;9.162;2024-01-07T05:59:16;10.80;60.90
48212;DHT22;34000;48.772;9.162;2024-01-07T06:01:42;10.90;60.90
48212;DHT22;34000;48.772;9.162;2024-01-07T06:04:07;10.80;60.90
48212;DHT22;34000;48.772;9.162;2024-01-07T06:06:33;10.80;60.90
48212;DHT22;34000;48.772;9.162;2024-01-07T06:08:59;10.80;60.90
48212;DHT22;34000;48.772;9.162;2024-01-07T06:11:25;10.80;60.90
48212;DHT22;34000;48.772;9.162;2024-01-07T06:13:50;10.70;60.80
48212;DHT22;34000;48.772;9.162;2024-01-07T06:16:16;10.70;60.80
48212;DHT22;34000;48.772;9.162;2024-01-07T06:18:41;10.80;60.90
48212;DHT22;34000;48.772;9.162;2024-01-07T06:21:07;10.70;60.90
48212;DHT22;34000;48.772;9.162;2024-01-07T06:23:33;10.70;60.80
48212;DHT22;34000;48.772;9.162;2024-01-07T06:25:59;10.70;60.90
48212;DHT22;34000;48.772;9.162;2024-01-07T06:28:24;10.70;60.80
48212;DHT22;34000;48.772;9.162;2024-01-07T06:30:50;10.80;60.90
48212;DHT22;34000;48.772;9.162;2024-01-07T06:33:15;10.80;60.90
48212;DHT22;34000;48.772;9.162;2024-01-07T06:35:41;10.70;60.80
48212;DHT22;34000;48.772;9.162;2024-01-07T06:38:07;10.70;60.90
48212;DHT22;34000;48.772;9.162;2024-01-07T06:40:32;10.60;60.80
48212;DHT22;34000;48.772;9.162;2024-01-07T06:42:58;10.70;60.80
48212;DHT22;34000;48.772;9.162;2024-01-07T06:45:23;10.70;60.90
48212;DHT22;34000;48.772;9.162;2024-01-07T06:47:49;10.70;60.80
48212;DHT22;34000;48.772;9.162;2024-01-07T06:50:15;10.60;60.70
48212;DHT22;34000;48.772;9.162;2024-01-07T06:52:40;10.70;60.70
48212;DHT22;34000;48.772;9.162;2024-01-07T06:55:06;10.60;60.70
48212;DHT22;34000;48.772;9.162;2024-01-07T06:57:32;10.60;60.70
48212;DHT22;34000;48.772;9.162;2024-01-07T06:59:58;10.60;60.70
48212;DHT22;34000;48.772;9.162;2024-01-07T07:02:23;10.60;60.70
48212;DHT22;34000;48.772;9.162;2024-01-07T07:04:49;10.70;60.80
48212;DHT22;34000;48.772;9.162;2024-01-07T07:07:17;10.60;60.70
48212;DHT22;34000;48.772;9.162;2024-01-07T07:09:42;10.50;60.60
48212;DHT22;34000;48.772;9.162;2024-01-07T07:12:08;10.60;60.70
48212;DHT22;34000;48.772;9.162;2024-01-07T07:14:34;10.60;60.70
48212;DHT22;34000;48.772;9.162;2024-01-07T07:17:00;10.60;60.70
48212;DHT22;34000;48.772;9.162;2024-01-07T07:19:25;10.50;60.60
48212;DHT22;34000;48.772;9.162;2024-01-07T07:21:51;10.60;60.60
48212;DHT22;34000;48.772;9.162;2024-01-07T07:24:17;10.50;60.50
48212;DHT22;34000;48.772;9.162;2024-01-07T07:26:42;10.50;60.60
48212;DHT22;34000;48.772;9.162;2024-01-07T07:29:08;10.50;60.50
48212;DHT22;34000;48.772;9.162;2024-01-07T07:31:35;10.50;60.40
48212;DHT22;34000;48.772;9.162;2024-01-07T07:34:05;10.40;60.30
48212;DHT22;34000;48.772;9.162;2024-01-07T07:36:31;10.40;60.30
48212;DHT22;34000;48.772;9.162;2024-01-07T07:38:57;10.40;60.20
48212;DHT22;34000;48.772;9.162;2024-01-07T07:41:23;10.40;60.30
48212;DHT22;34000;48.772;9.162;2024-01-07T07:43:48;10.40;60.20
48212;DHT22;34000;48.772;9.162;2024-01-07T07:46:14;10.30;60.10
48212;DHT22;34000;48.772;9.162;2024-01-07T07:48:41;10.30;60.10
48212;DHT22;34000;48.772;9.162;2024-01-07T07:51:07;10.40;60.10
48212;DHT22;34000;48.772;9.162;2024-01-07T07:53:33;10.40;60.00
48212;DHT22;34000;48.772;9.162;2024-01-07T07:55:58;10.30;59.90
48212;DHT22;34000;48.772;9.162;2024-01-07T07:58:24;10.30;59.90
48212;DHT22;34000;48.772;9.162;2024-01-07T08:00:50;10.30;59.80
48212;DHT22;34000;48.772;9.162;2024-01-07T08:03:15;10.30;59.80
48212;DHT22;34000;48.772;9.162;2024-01-07T08:05:41;10.30;59.80
48212;DHT22;34000;48.772;9.162;2024-01-07T08:08:07;10.20;59.80
48212;DHT22;34000;48.772;9.162;2024-01-07T08:10:33;10.30;59.80
48212;DHT22;34000;48.772;9.162;2024-01-07T08:13:00;10.30;59.70
48212;DHT22;34000;48.772;9.162;2024-01-07T08:15:26;10.30;59.70
48212;DHT22;34000;48.772;9.162;2024-01-07T08:17:52;10.20;59.70
48212;DHT22;34000;48.772;9.162;2024-01-07T08:20:17;10.20;59.70
48212;DHT22;34000;48.772;9.162;2024-01-07T08:22:44;10.20;59.60
48212;DHT22;34000;48.772;9.162;2024-01-07T08:25:10;10.20;59.50
48212;DHT22;34000;48.772;9.162;2024-01-07T08:27:36;10.30;59.40
48212;DHT22;34000;48.772;9.162;2024-01-07T08:30:03;10.20;59.30
48212;DHT22;34000;48.772;9.162;2024-01-07T08:32:29;10.20;59.30
48212;DHT22;34000;48.772;9.162;2024-01-07T08:34:54;10.20;59.20
48212;DHT22;34000;48.772;9.162;2024-01-07T08:37:20;10.10;59.20
48212;DHT22;34000;48.772;9.162;2024-01-07T08:39:45;10.10;59.30
48212;DHT22;34000;48.772;9.162;2024-01-07T08:42:11;10.10;59.30
48212;DHT22;34000;48.772;9.162;2024-01-07T08:44:36;10.10;59.20
48212;DHT22;34000;48.772;9.162;2024-01-07T08:47:02;10.10;59.20
48212;DHT22;34000;48.772;9.162;2024-01-07T08:49:28;10.10;59.20
48212;DHT22;34000;48.772;9.162;2024-01-07T08:51:54;10.00;59.60
48212;DHT22;34000;48.772;9.162;2024-01-07T08:54:21;10.00;59.10
48212;DHT22;34000;48.772;9.162;2024-01-07T08:56:47;10.00;59.10
48212;DHT22;34000;48.772;9.162;2024-01-07T08:59:12;10.00;59.10
48212;DHT22;34000;48.772;9.162;2024-01-07T09:01:38;10.00;59.00
48212;DHT22;34000;48.772;9.162;2024-01-07T09:04:04;10.00;59.00
48212;DHT22;34000;48.772;9.162;2024-01-07T09:06:29;10.00;59.00
48212;DHT22;34000;48.772;9.162;2024-01-07T09:08:55;10.00;59.00
48212;DHT22;34000;48.772;9.162;2024-01-07T09:11:21;10.00;58.90
48212;DHT22;34000;48.772;9.162;2024-01-07T09:13:46;10.00;58.80
48212;DHT22;34000;48.772;9.162;2024-01-07T09:16:14;10.00;58.70
48212;DHT22;34000;48.772;9.162;2024-01-07T09:18:40;10.00;58.70
48212;DHT22;34000;48.772;9.162;2024-01-07T09:21:06;10.00;58.50
48212;DHT22;34000;48.772;9.162;2024-01-07T09:23:32;9.90;58.50
48212;DHT22;34000;48.772;9.162;2024-01-07T09:26:01;9.90;58.60
48212;DHT22;34000;48.772;9.162;2024-01-07T09:28:27;9.90;58.60
48212;DHT22;34000;48.772;9.162;2024-01-07T09:30:53;9.90;58.50
48212;DHT22;34000;48.772;9.162;2024-01-07T09:33:18;9.80;58.40
48212;DHT22;34000;48.772;9.162;2024-01-07T09:35:45;9.90;58.30
48212;DHT22;34000;48.772;9.162;2024-01-07T09:38:11;9.90;58.20
48212;DHT22;34000;48.772;9.162;2024-01-07T09:40:38;9.80;58.10
48212;DHT22;34000;48.772;9.162;2024-01-07T09:43:05;9.70;58.20
48212;DHT22;34000;48.772;9.162;2024-01-07T09:45:31;9.80;58.20
48212;DHT22;34000;48.772;9.162;2024-01-07T09:47:57;9.80;58.10
48212;DHT22;34000;48.772;9.162;2024-01-07T09:50:22;9.80;58.10
48212;DHT22;34000;48.772;9.162;2024-01-07T09:52:48;9.80;58.00
48212;DHT22;34000;48.772;9.162;2024-01-07T09:55:26;9.80;57.90
48212;DHT22;34000;48.772;9.162;2024-01-07T09:57:53;9.80;57.80
48212;DHT22;34000;48.772;9.162;2024-01-07T10:00:18;9.90;57.80
48212;DHT22;34000;48.772;9.162;2024-01-07T10:02:44;9.80;57.70
48212;DHT22;34000;48.772;9.162;2024-01-07T10:05:10;9.80;57.60
48212;DHT22;34000;48.772;9.162;2024-01-07T10:07:35;9.80;57.40
48212;DHT22;34000;48.772;9.162;2024-01-07T10:10:16;9.80;57.30
48212;DHT22;34000;48.772;9.162;2024-01-07T10:12:46;9.80;57.30
48212;DHT22;34000;48.772;9.162;2024-01-07T10:15:12;9.80;57.40
48212;DHT22;34000;48.772;9.162;2024-01-07T10:17:38;9.80;57.30
48212;DHT22;34000;48.772;9.162;2024-01-07T10:20:05;9.70;57.20
48212;DHT22;34000;48.772;9.162;2024-01-07T10:22:36;9.70;57.20
48212;DHT22;34000;48.772;9.162;2024-01-07T10:25:01;9.70;57.20
48212;DHT22;34000;48.772;9.162;2024-01-07T10:27:27;9.70;57.10
48212;DHT22;34000;48.772;9.162;2024-01-07T10:29:52;9.70;57.10
48212;DHT22;34000;48.772;9.162;2024-01-07T10:32:20;9.80;57.10
48212;DHT22;34000;48.772;9.162;2024-01-07T10:34:46;9.70;57.00
48212;DHT22;34000;48.772;9.162;2024-01-07T10:37:15;9.70;56.90
48212;DHT22;34000;48.772;9.162;2024-01-07T10:39:40;9.80;56.90
48212;DHT22;34000;48.772;9.162;2024-01-07T10:42:07;9.70;56.80
48212;DHT22;34000;48.772;9.162;2024-01-07T10:44:33;9.60;56.70
48212;DHT22;34000;48.772;9.162;2024-01-07T10:47:06;9.60;56.70
48212;DHT22;34000;48.772;9.162;2024-01-07T10:49:32;9.60;56.60
48212;DHT22;34000;48.772;9.162;2024-01-07T10:52:07;9.60;56.60
48212;DHT22;34000;48.772;9.162;2024-01-07T10:54:34;9.60;56.70
48212;DHT22;34000;48.772;9.162;2024-01-07T10:57:21;9.60;56.60
48212;DHT22;34000;48.772;9.162;2024-01-07T10:59:50;9.60;56.50
48212;DHT22;34000;48.772;9.162;2024-01-07T11:02:20;9.50;56.40
48212;DHT22;34000;48.772;9.162;2024-01-07T11:10:16;9.50;56.40
48212;DHT22;34000;48.772;9.162;2024-01-07T11:12:43;9.50;56.30
48212;DHT22;34000;48.772;9.162;2024-01-07T11:15:09;9.60;56.40
48212;DHT22;34000;48.772;9.162;2024-01-07T11:20:01;9.60;56.20
48212;DHT22;34000;48.772;9.162;2024-01-07T11:22:27;9.60;56.20
48212;DHT22;34000;48.772;9.162;2024-01-07T11:25:03;9.60;56.00
48212;DHT22;34000;48.772;9.162;2024-01-07T11:27:48;9.50;56.00
48212;DHT22;34000;48.772;9.162;2024-01-07T11:30:20;9.50;55.90
48212;DHT22;34000;48.772;9.162;2024-01-07T11:32:45;9.50;55.90
48212;DHT22;34000;48.772;9.162;2024-01-07T11:35:14;9.50;56.00
48212;DHT22;34000;48.772;9.162;2024-01-07T11:37:41;9.50;56.00
48212;DHT22;34000;48.772;9.162;2024-01-07T11:40:07;9.50;56.00
48212;DHT22;34000;48.772;9.162;2024-01-07T11:42:33;9.50;55.80
48212;DHT22;34000;48.772;9.162;2024-01-07T11:44:59;9.50;55.90
48212;DHT22;34000;48.772;9.162;2024-01-07T11:47:25;9.50;55.80
48212;DHT22;34000;48.772;9.162;2024-01-07T11:49:53;9.60;55.80
48212;DHT22;34000;48.772;9.162;2024-01-07T11:52:20;9.50;55.60
48212;DHT22;34000;48.772;9.162;2024-01-07T11:54:46;9.50;55.60
48212;DHT22;34000;48.772;9.162;2024-01-07T11:57:13;9.40;55.60
48212;DHT22;34000;48.772;9.162;2024-01-07T11:59:39;9.40;55.60
48212;DHT22;34000;48.772;9.162;2024-01-07T12:02:07;9.40;55.60
48212;DHT22;34000;48.772;9.162;2024-01-07T12:04:33;9.40;55.60
48212;DHT22;34000;48.772;9.162;2024-01-07T12:06:59;9.40;55.50
48212;DHT22;34000;48.772;9.162;2024-01-07T12:09:26;9.40;55.30
48212;DHT22;34000;48.772;9.162;2024-01-07T12:11:52;9.30;55.30
48212;DHT22;34000;48.772;9.162;2024-01-07T12:14:18;9.30;55.40
48212;DHT22;34000;48.772;9.162;2024-01-07T12:16:45;9.30;55.50
48212;DHT22;34000;48.772;9.162;2024-01-07T12:19:11;9.20;55.50
48212;DHT22;34000;48.772;9.162;2024-01-07T12:21:37;9.20;55.50
48212;DHT22;34000;48.772;9.162;2024-01-07T12:24:03;9.30;55.50
48212;DHT22;34000;48.772;9.162;2024-01-07T12:26:29;9.20;55.40
48212;DHT22;34000;48.772;9.162;2024-01-07T12:28:58;9.20;55.40
48212;DHT22;34000;48.772;9.162;2024-01-07T12:31:32;9.20;55.50
48212;DHT22;34000;48.772;9.162;2024-01-07T12:33:58;9.30;55.50
48212;DHT22;34000;48.772;9.162;2024-01-07T12:36:25;9.30;55.30
48212;DHT22;34000;48.772;9.162;2024-01-07T12:38:52;9.30;55.30
48212;DHT22;34000;48.772;9.162;2024-01-07T12:41:20;9.30;55.10
48212;DHT22;34000;48.772;9.162;2024-01-07T12:43:46;9.30;55.10
48212;DHT22;34000;48.772;9.162;2024-01-07T12:46:11;9.20;55.00
48212;DHT22;34000;48.772;9.162;2024-01-07T12:48:37;9.30;55.10
48212;DHT22;34000;48.772;9.162;2024-01-07T12:51:03;9.20;55.00
48212;DHT22;34000;48.772;9.162;2024-01-07T12:53:28;9.10;55.00
48212;DHT22;34000;48.772;9.162;2024-01-07T12:55:54;9.10;55.10
48212;DHT22;34000;48.772;9.162;2024-01-07T12:58:20;9.10;55.80
48212;DHT22;34000;48.772;9.162;2024-01-07T13:00:46;9.10;55.20
48212;DHT22;34000;48.772;9.162;2024-01-07T13:03:12;9.00;55.10
48212;DHT22;34000;48.772;9.162;2024-01-07T13:05:46;9.10;55.20
48212;DHT22;34000;48.772;9.162;2024-01-07T13:08:15;9.00;55.20
48212;DHT22;34000;48.772;9.162;2024-01-07T13:10:41;9.00;55.10
48212;DHT22;34000;48.772;9.162;2024-01-07T13:13:06;9.00;55.10
48212;DHT22;34000;48.772;9.162;2024-01-07T13:15:32;9.00;55.10
48212;DHT22;34000;48.772;9.162;2024-01-07T13:17:58;9.00;55.10
48212;DHT22;34000;48.772;9.162;2024-01-07T13:20:23;9.00;55.10
48212;DHT22;34000;48.772;9.162;2024-01-07T13:22:49;9.00;55.10
48212;DHT22;34000;48.772;9.162;2024-01-07T13:25:15;9.00;55.00
48212;DHT22;34000;48.772;9.162;2024-01-07T13:27:41;9.00;55.00
48212;DHT22;34000;48.772;9.162;2024-01-07T13:30:08;9.00;55.10
48212;DHT22;34000;48.772;9.162;2024-01-07T13:32:35;9.00;55.00
48212;DHT22;34000;48.772;9.162;2024-01-07T13:35:02;8.80;54.90
48212;DHT22;34000;48.772;9.162;2024-01-07T13:37:28;8.90;55.00
48212;DHT22;34000;48.772;9.162;2024-01-07T13:39:54;8.90;55.10
48212;DHT22;34000;48.772;9.162;2024-01-07T13:42:19;8.90;55.10
48212;DHT22;34000;48.772;9.162;2024-01-07T13:44:45;8.90;55.10
48212;DHT22;34000;48.772;9.162;2024-01-07T13:47:12;8.90;55.10
48212;DHT22;34000;48.772;9.162;2024-01-07T13:49:41;8.90;55.00
48212;DHT22;34000;48.772;9.162;2024-01-07T13:52:07;9.00;55.60
48212;DHT22;34000;48.772;9.162;2024-01-07T13:54:33;8.90;54.80
48212;DHT22;34000;48.772;9.162;2024-01-07T13:56:58;8.90;54.70
48212;DHT22;34000;48.772;9.162;2024-01-07T13:59:25;8.90;54.80
48212;DHT22;34000;48.772;9.162;2024-01-07T14:01:51;8.80;54.60
48212;DHT22;34000;48.772;9.162;2024-01-07T14:04:17;8.70;54.70
48212;DHT22;34000;48.772;9.162;2024-01-07T14:06:43;8.70;54.80
48212;DHT22;34000;48.772;9.162;2024-01-07T14:09:09;8.70;54.90
48212;DHT22;34000;48.772;9.162;2024-01-07T14:11:35;8.70;54.90
48212;DHT22;34000;48.772;9.162;2024-01-07T14:14:01;8.80;55.10
48212;DHT22;34000;48.772;9.162;2024-01-07T14:16:27;8.70;54.70
48212;DHT22;34000;48.772;9.162;2024-01-07T14:18:52;8.70;54.70
48212;DHT22;34000;48.772;9.162;2024-01-07T14:21:18;8.70;54.70
48212;DHT22;34000;48.772;9.162;2024-01-07T14:23:43;8.60;54.70
48212;DHT22;34000;48.772;9.162;2024-01-07T14:26:09;8.60;55.30
48212;DHT22;34000;48.772;9.162;2024-01-07T14:28:35;8.60;54.60
48212;DHT22;34000;48.772;9.162;2024-01-07T14:31:01;8.50;54.70
48212;DHT22;34000;48.772;9.162;2024-01-07T14:33:27;8.50;54.70
48212;DHT22;34000;48.772;9.162;2024-01-07T14:35:52;8.50;54.80
48212;DHT22;34000;48.772;9.162;2024-01-07T14:38:18;8.50;54.80
48212;DHT22;34000;48.772;9.162;2024-01-07T14:40:44;8.50;54.80
48212;DHT22;34000;48.772;9.162;2024-01-07T14:43:12;8.40;54.70
48212;DHT22;34000;48.772;9.162;2024-01-07T14:45:38;8.40;54.80
48212;DHT22;34000;48.772;9.162;2024-01-07T14:48:04;8.30;55.50
48212;DHT22;34000;48.772;9.162;2024-01-07T14:50:29;8.30;54.90
48212;DHT22;34000;48.772;9.162;2024-01-07T14:52:55;8.30;54.90
48212;DHT22;34000;48.772;9.162;2024-01-07T14:55:21;8.20;54.90
48212;DHT22;34000;48.772;9.162;2024-01-07T14:57:46;8.20;55.10
48212;DHT22;34000;48.772;9.162;2024-01-07T15:00:12;8.10;55.10
48212;DHT22;34000;48.772;9.162;2024-01-07T15:02:39;8.10;55.00
48212;DHT22;34000;48.772;9.162;2024-01-07T15:05:05;8.10;55.10
48212;DHT22;34000;48.772;9.162;2024-01-07T15:07:30;8.10;55.10
48212;DHT22;34000;48.772;9.162;2024-01-07T15:09:56;8.00;55.10
48212;DHT22;34000;48.772;9.162;2024-01-07T15:12:21;8.00;55.20
48212;DHT22;34000;48.772;9.162;2024-01-07T15:14:48;7.90;55.10
48212;DHT22;34000;48.772;9.162;2024-01-07T15:17:14;7.90;55.20
48212;DHT22;34000;48.772;9.162;2024-01-07T15:19:42;7.90;55.20
48212;DHT22;34000;48.772;9.162;2024-01-07T15:22:08;7.90;55.20
48212;DHT22;34000;48.772;9.162;2024-01-07T15:24:34;7.90;55.20
48212;DHT22;34000;48.772;9.162;2024-01-07T15:26:59;7.90;55.10
48212;DHT22;34000;48.772;9.162;2024-01-07T15:29:25;8.00;55.10
48212;DHT22;34000;48.772;9.162;2024-01-07T15:31:50;8.00;55.00
48212;DHT22;34000;48.772;9.162;2024-01-07T15:34:16;8.00;54.90
48212;DHT22;34000;48.772;9.162;2024-01-07T15:36:42;8.00;55.00
48212;DHT22;34000;48.772;9.162;2024-01-07T15:39:08;8.00;55.10
48212;DHT22;34000;48.772;9.162;2024-01-07T15:41:37;7.90;55.10